Aérodrome :
LOGIN :

S'inscrire | Disclaimer

   EN    FR    IT 

 










Légende :    VFR   VFR Marginal   IFR   IFR Intensif   IFR Très Intensif
Visi : 
Plafond : 
>= 8 km
>= 3000ft
5 à 8 km
1000 à 3000 ft
1500m à 5 km
500 à 1000 ft
800 à 1500m
200 à 500 ft
< 800m
< 200 ft
Symboles :   Orages  Brouillard  Fortes neiges  Fortes précipitations  Vent > 20 kt
SIGMETs :   Divers  Orages  Givrage  Turbulence  Onde Orograph.  Cendres Volcan.






- Altitude de l'aérodrome : 24 ft
- Code IATA : IBZ


LEIB - Ibiza

DERNIER METAR :
  • 250000Z AUTO 24006KT CAVOK 13/12 Q1020

METARs EXPIRÉS :
  • 242330Z AUTO 23006KT 9999 FEW009/// 13/12 Q1021
  • 242300Z 23007KT 9999 FEW009 13/12 Q1021 NOSIG
  • 242230Z 23007KT 9999 FEW009 13/12 Q1021 NOSIG
  • 242200Z 23006KT 9999 FEW009 13/12 Q1021 NOSIG
  • 242130Z 23006KT 9999 SCT008 13/12 Q1022 NOSIG

TAF TAF LEIB
Valide du 24 à 21h jusqu'au 25 à 21h UTC


242000Z 2421/2521 22007KT CAVOK TX19/2512Z TN08/2506Z
PROB40
TEMPO 2422/2508 VRB03KT 3000 BR BKN008
TEMPO 2508/2516 24012KT



MET'MAP, la Météo Aéronautique d'un coup d'oeil ! - Copyright ORBIFLY Décembre 2007 - Disclaimer

ORBIFLY MET'MAP TEAM :

Programmation & Développement : Alexandra Zaïnal
Sur une idée originale de : Baudouin d'Aumeries
Assistance à la programmation : Marc-Olivier Méhu
Soutien technique & logistique : Manuel Goepfert

Contact : metmap@orbifly.com




SOURCES & CREDITS :

   NOAA